createdAt,value
2023-09-06T00:00:17.452Z,32
2023-09-06T00:05:31.691Z,32
2023-09-06T00:10:46.616Z,32
2023-09-06T00:16:02.162Z,32
2023-09-06T00:21:17.618Z,32
2023-09-06T00:26:34.403Z,33
2023-09-06T00:31:50.703Z,33
2023-09-06T00:37:06.789Z,33
2023-09-06T00:42:22.429Z,33
2023-09-06T00:47:37.213Z,33
2023-09-06T00:52:52.022Z,33
2023-09-06T00:58:07.822Z,33
2023-09-06T01:03:23.962Z,33
2023-09-06T01:08:38.556Z,33
2023-09-06T01:13:54.755Z,33
2023-09-06T01:19:09.749Z,33
2023-09-06T01:24:24.502Z,33
2023-09-06T01:29:40.000Z,33
2023-09-06T01:34:56.288Z,33
2023-09-06T01:40:11.832Z,33
2023-09-06T01:45:27.839Z,33
2023-09-06T01:50:43.470Z,33
2023-09-06T01:55:58.221Z,34
2023-09-06T02:01:13.930Z,34
2023-09-06T02:06:31.831Z,34
2023-09-06T02:11:46.716Z,34
2023-09-06T02:17:01.763Z,34
2023-09-06T02:22:17.222Z,34
2023-09-06T02:27:31.349Z,34
2023-09-06T02:32:47.797Z,34
2023-09-06T02:38:03.051Z,34
2023-09-06T02:43:18.080Z,34
2023-09-06T02:48:32.789Z,34
2023-09-06T02:53:47.701Z,34
2023-09-06T02:59:02.557Z,34
2023-09-06T03:04:17.777Z,34
2023-09-06T03:09:33.036Z,34
2023-09-06T03:14:47.828Z,34
2023-09-06T03:20:03.373Z,34
2023-09-06T03:25:17.761Z,34
2023-09-06T03:30:32.488Z,34
2023-09-06T03:35:48.676Z,34
2023-09-06T03:41:04.410Z,34
2023-09-06T03:46:18.485Z,34
2023-09-06T03:51:33.991Z,34
2023-09-06T03:56:50.062Z,34
2023-09-06T04:02:05.240Z,34
2023-09-06T04:07:21.137Z,34
2023-09-06T04:13:04.205Z,34
2023-09-06T04:18:20.590Z,34
2023-09-06T04:23:35.832Z,34
2023-09-06T05:01:32.058Z,35
2023-09-06T05:06:40.794Z,35
2023-09-06T05:18:08.303Z,35
2023-09-06T05:23:23.210Z,35
2023-09-06T05:28:39.227Z,35
2023-09-06T05:34:54.046Z,35
2023-09-06T05:42:02.776Z,35
2023-09-06T05:48:26.947Z,35
2023-09-06T06:08:44.439Z,36
2023-09-06T06:14:11.584Z,36
2023-09-06T06:19:00.802Z,36
2023-09-06T06:24:09.844Z,36
2023-09-06T06:29:18.108Z,36
2023-09-06T06:34:26.241Z,36
2023-09-06T06:44:42.557Z,37
2023-09-06T06:49:50.954Z,37
2023-09-06T06:54:59.103Z,37
2023-09-06T07:00:07.532Z,37
2023-09-06T07:05:16.769Z,37
2023-09-06T07:10:24.861Z,37
2023-09-06T07:15:34.185Z,37
2023-09-06T07:20:42.212Z,37
2023-09-06T07:25:50.650Z,37
2023-09-06T07:30:58.752Z,37
2023-09-06T07:36:07.226Z,37
2023-09-06T07:41:18.628Z,36
2023-09-06T07:46:27.380Z,36
2023-09-06T08:01:52.086Z,35
2023-09-06T08:07:00.352Z,34
2023-09-06T08:12:09.598Z,33
2023-09-06T08:17:18.796Z,32
2023-09-06T08:22:45.447Z,32
2023-09-06T08:27:35.183Z,31
2023-09-06T08:32:43.984Z,30
2023-09-06T08:43:00.775Z,29
2023-09-06T08:48:09.604Z,28
2023-09-06T08:53:17.327Z,28
2023-09-06T08:58:25.982Z,27
2023-09-06T09:03:35.769Z,27
2023-09-06T09:08:42.360Z,26
2023-09-06T09:13:51.113Z,26
2023-09-06T09:18:59.729Z,25
2023-09-06T09:24:07.744Z,25
2023-09-06T09:29:16.356Z,25
2023-09-06T09:34:24.346Z,24
2023-09-06T09:39:32.520Z,24
2023-09-06T09:44:40.555Z,23
2023-09-06T09:49:49.989Z,23
2023-09-06T09:54:58.189Z,22
2023-09-06T10:00:06.589Z,22
2023-09-06T10:10:23.909Z,22
2023-09-06T10:15:32.234Z,21
2023-09-06T10:20:40.981Z,21
2023-09-06T10:25:49.221Z,20
2023-09-06T10:30:57.701Z,20
2023-09-06T10:36:06.217Z,20
2023-09-06T10:41:14.011Z,20
2023-09-06T10:46:22.816Z,20
2023-09-06T10:51:31.332Z,19
2023-09-06T10:56:39.168Z,19
2023-09-06T11:01:56.874Z,19
2023-09-06T11:06:58.067Z,18
2023-09-06T11:12:05.658Z,18
2023-09-06T11:13:37.541Z,18
2023-09-06T11:18:52.352Z,18
2023-09-06T11:24:10.426Z,17
2023-09-06T11:29:26.690Z,17
2023-09-06T11:34:45.333Z,17
2023-09-06T11:39:56.422Z,17
2023-09-06T11:45:14.443Z,17
2023-09-06T11:50:32.261Z,17
2023-09-06T11:55:46.072Z,16
2023-09-06T12:01:02.032Z,16
2023-09-06T12:06:18.391Z,16
2023-09-06T12:11:34.028Z,16
2023-09-06T12:16:51.482Z,16
2023-09-06T12:22:06.909Z,16
2023-09-06T12:27:22.383Z,16
2023-09-06T12:33:14.003Z,16
2023-09-06T12:38:31.955Z,16
2023-09-06T12:43:47.485Z,16
2023-09-06T12:49:02.533Z,16
2023-09-06T12:54:18.410Z,15
2023-09-06T12:59:33.963Z,15
2023-09-06T13:04:50.554Z,15
2023-09-06T13:10:04.963Z,15
2023-09-06T13:15:20.482Z,15
2023-09-06T13:20:36.668Z,15
2023-09-06T13:25:51.045Z,15
2023-09-06T13:31:06.003Z,15
2023-09-06T13:36:20.683Z,15
2023-09-06T13:41:36.941Z,15
2023-09-06T13:46:52.960Z,15
2023-09-06T13:52:08.532Z,15
2023-09-06T13:57:26.813Z,15
2023-09-06T14:02:41.100Z,15
2023-09-06T14:07:54.604Z,15
2023-09-06T14:13:10.576Z,15
2023-09-06T14:18:26.749Z,15
2023-09-06T14:23:41.618Z,15
2023-09-06T14:28:57.822Z,16
2023-09-06T14:34:13.283Z,16
2023-09-06T14:39:28.794Z,16
2023-09-06T15:53:07.140Z,18
2023-09-06T15:58:22.253Z,18
2023-09-06T16:03:38.391Z,18
2023-09-06T16:08:59.031Z,18
2023-09-06T16:14:14.104Z,18
2023-09-06T16:19:28.795Z,18
2023-09-06T16:25:12.508Z,18
2023-09-06T16:30:28.766Z,18
2023-09-06T16:35:43.551Z,18
2023-09-06T16:40:59.035Z,18
2023-09-06T16:46:14.805Z,18
2023-09-06T16:51:29.461Z,18
2023-09-06T16:56:46.874Z,18
2023-09-06T17:02:01.934Z,18
2023-09-06T17:07:17.949Z,18
2023-09-06T17:12:32.810Z,19
2023-09-06T17:17:49.338Z,19
2023-09-06T17:23:04.524Z,19
2023-09-06T17:28:47.550Z,19
2023-09-06T17:34:03.102Z,20
2023-09-06T17:39:19.265Z,20
2023-09-06T17:44:34.132Z,20
2023-09-06T17:49:50.238Z,21
2023-09-06T17:55:06.500Z,21
2023-09-06T18:00:22.628Z,21
2023-09-06T18:05:38.007Z,21
2023-09-06T19:03:29.901Z,23
2023-09-06T19:08:43.947Z,24
2023-09-06T19:13:58.794Z,24
2023-09-06T19:19:13.489Z,24
2023-09-06T19:24:28.310Z,24
2023-09-06T19:29:43.232Z,24
2023-09-06T19:34:59.357Z,24
2023-09-06T19:40:15.564Z,24
2023-09-06T19:45:31.040Z,24
2023-09-06T19:50:48.104Z,24
2023-09-06T19:56:03.379Z,24
2023-09-06T20:01:18.512Z,24
2023-09-06T20:06:33.784Z,24
2023-09-06T20:11:49.346Z,25
2023-09-06T20:17:04.310Z,25
2023-09-06T20:22:19.028Z,25
2023-09-06T20:27:34.606Z,25
2023-09-06T20:32:50.367Z,25
2023-09-06T20:38:06.224Z,25
2023-09-06T20:43:22.394Z,25
2023-09-06T20:48:38.724Z,25
2023-09-06T20:53:53.433Z,26
2023-09-06T20:59:08.983Z,26
2023-09-06T21:04:26.861Z,26
2023-09-06T21:09:42.550Z,26
2023-09-06T21:14:58.236Z,26
2023-09-06T21:20:14.292Z,26
2023-09-06T21:25:29.122Z,26
2023-09-06T21:30:44.004Z,27
2023-09-06T21:35:59.509Z,27
2023-09-06T23:11:30.094Z,30
